Time;durP1;ratioP1;P1;durP2;ratioP2;P2;SDS_P1;SDS_P2;PMS_P1;PMS_P2;Temp;Humidity;BMP_temperature;BMP_pressure;BME280_temperature;BME280_humidity;BME280_pressure;Samples;Min_cycle;Max_cycle;Signal;HPM_P1;HPM_P2
2022/12/16 00:00:22;;;;;;;46.47;25.15;;;0.50;1.00;;;;;;5057714;28;20510;-75
2022/12/16 00:02:49;;;;;;;32.90;22.67;;;0.40;1.00;;;;;;5075432;28;20508;-74
2022/12/16 00:05:14;;;;;;;36.15;19.55;;;0.30;1.00;;;;;;5056598;28;20208;-74
2022/12/16 00:07:40;;;;;;;32.90;20.90;;;0.30;1.00;;;;;;5075108;28;20562;-74
2022/12/16 00:10:07;;;;;;;40.80;22.33;;;0.30;1.00;;;;;;5057540;28;20418;-72
2022/12/16 00:12:33;;;;;;;33.35;19.77;;;0.30;1.00;;;;;;5075172;28;20166;-73
2022/12/16 00:14:59;;;;;;;39.60;21.90;;;0.40;1.00;;;;;;5056337;28;20243;-72
2022/12/16 00:17:25;;;;;;;35.63;22.93;;;0.40;1.00;;;;;;5057326;28;20405;-73
2022/12/16 00:19:50;;;;;;;41.90;24.30;;;0.50;1.00;;;;;;5074743;28;20870;-75
2022/12/16 00:22:16;;;;;;;34.23;21.20;;;0.60;1.00;;;;;;5057240;28;20177;-73
2022/12/16 00:24:42;;;;;;;36.77;21.70;;;0.60;1.00;;;;;;5074323;28;20520;-72
2022/12/16 00:27:08;;;;;;;37.97;19.80;;;0.60;1.00;;;;;;5074722;28;20478;-73
2022/12/16 00:29:33;;;;;;;44.13;24.17;;;0.60;1.00;;;;;;5074660;28;20251;-75
2022/12/16 00:31:59;;;;;;;39.77;21.77;;;0.60;1.00;;;;;;5074843;28;20181;-73
2022/12/16 00:34:25;;;;;;;37.63;21.10;;;0.50;1.00;;;;;;5073999;28;20651;-74
2022/12/16 00:36:51;;;;;;;31.43;20.23;;;0.60;1.00;;;;;;5074784;28;20228;-74
2022/12/16 00:39:16;;;;;;;40.87;21.50;;;0.60;1.00;;;;;;5057145;28;20192;-74
2022/12/16 00:41:42;;;;;;;46.37;24.17;;;0.70;1.00;;;;;;5056808;28;20228;-72
2022/12/16 00:44:08;;;;;;;43.00;21.40;;;0.80;1.00;;;;;;5074237;28;20218;-72
2022/12/16 00:46:33;;;;;;;36.00;22.00;;;0.80;1.00;;;;;;5074033;28;20198;-74
2022/12/16 00:48:59;;;;;;;44.70;24.37;;;0.90;1.00;;;;;;5074586;28;20173;-73
2022/12/16 00:51:25;;;;;;;38.73;22.20;;;0.90;1.00;;;;;;5074273;28;20530;-72
2022/12/16 00:53:51;;;;;;;30.77;19.87;;;0.90;1.00;;;;;;5056545;28;20235;-73
2022/12/16 00:56:17;;;;;;;31.90;21.93;;;0.90;1.00;;;;;;5073736;28;20421;-72
2022/12/16 00:58:43;;;;;;;40.80;21.23;;;1.00;1.00;;;;;;5074270;28;20479;-72
2022/12/16 01:01:10;;;;;;;36.20;21.00;;;1.00;1.00;;;;;;5056580;28;20260;-72
2022/12/16 01:03:37;;;;;;;35.73;20.67;;;1.00;1.00;;;;;;5074062;28;20408;-74
2022/12/16 01:06:15;;;;;;;46.20;23.40;;;1.00;1.00;;;;;;5073342;28;20486;-72
2022/12/16 01:08:47;;;;;;;38.37;22.70;;;1.00;1.00;;;;;;5074138;28;20400;-72
2022/12/16 01:11:17;;;;;;;29.67;17.30;;;1.10;1.00;;;;;;5073993;28;20809;-73
2022/12/16 01:13:43;;;;;;;34.38;22.83;;;1.10;1.00;;;;;;5073803;28;20385;-72
2022/12/16 01:16:09;;;;;;;34.07;22.20;;;1.10;1.00;;;;;;5073053;28;20177;-72
2022/12/16 01:18:35;;;;;;;34.67;20.50;;;1.10;1.00;;;;;;5056187;28;20408;-72
2022/12/16 01:21:06;;;;;;;37.80;22.70;;;1.00;1.00;;;;;;5073766;28;20173;-73
2022/12/16 01:23:33;;;;;;;36.30;22.43;;;1.00;1.00;;;;;;5073585;28;20416;-72
2022/12/16 01:26:00;;;;;;;32.20;17.87;;;1.10;1.00;;;;;;5072835;28;20444;-73
2022/12/16 01:28:27;;;;;;;32.80;19.47;;;1.10;1.00;;;;;;5073753;28;20418;-72
2022/12/16 01:31:03;;;;;;;35.30;20.77;;;1.10;1.00;;;;;;5055607;28;20407;-73
2022/12/16 01:33:31;;;;;;;42.83;21.23;;;1.10;1.00;;;;;;5073558;28;20745;-72
2022/12/16 01:36:07;;;;;;;31.85;19.35;;;1.10;1.00;;;;;;5072854;28;20392;-73
2022/12/16 01:38:34;;;;;;;31.53;20.17;;;1.10;1.00;;;;;;5073635;28;20646;-72
2022/12/16 01:41:01;;;;;;;35.93;21.50;;;1.10;1.00;;;;;;5073595;28;20425;-72
2022/12/16 01:43:30;;;;;;;32.33;20.77;;;1.10;1.00;;;;;;5073557;28;20956;-73
2022/12/16 01:46:04;;;;;;;38.60;21.05;;;1.00;1.00;;;;;;5072874;28;20228;-73
2022/12/16 01:48:47;;;;;;;34.60;19.33;;;0.90;1.00;;;;;;5055420;28;20166;-73
2022/12/16 01:51:22;;;;;;;38.27;19.87;;;0.90;1.00;;;;;;5073484;28;20176;-72
2022/12/16 01:53:51;;;;;;;31.83;19.30;;;0.90;1.00;;;;;;5073434;28;20432;-73
2022/12/16 01:56:20;;;;;;;31.85;20.08;;;0.90;1.00;;;;;;5072647;28;20425;-73
2022/12/16 01:58:46;;;;;;;31.10;18.63;;;1.00;1.00;;;;;;5073487;28;20174;-70
2022/12/16 02:01:15;;;;;;;31.70;20.47;;;1.00;1.00;;;;;;5073284;28;20539;-73
2022/12/16 02:03:42;;;;;;;35.50;19.67;;;1.10;1.00;;;;;;5073262;28;20408;-73
2022/12/16 02:06:08;;;;;;;39.17;21.40;;;1.00;1.00;;;;;;5072412;28;20452;-73
2022/12/16 02:08:34;;;;;;;35.85;20.52;;;0.90;1.00;;;;;;5073110;28;20415;-73
2022/12/16 02:11:34;;;;;;;35.35;19.67;;;0.80;1.00;;;;;;5055336;28;20550;-74
2022/12/16 02:14:30;;;;;;;34.50;20.70;;;0.80;1.00;;;;;;5078136;28;20190;-73
2022/12/16 02:17:06;;;;;;;28.38;20.00;;;0.90;1.00;;;;;;5062031;28;20481;-71
2022/12/16 02:19:57;;;;;;;33.20;20.90;;;0.90;1.00;;;;;;5061921;28;20650;-71
2022/12/16 02:22:26;;;;;;;31.55;19.38;;;0.90;1.00;;;;;;5061981;28;20420;-71
2022/12/16 02:25:16;;;;;;;33.15;19.77;;;0.80;1.00;;;;;;5079041;28;20304;-73
2022/12/16 02:27:55;;;;;;;34.87;19.60;;;0.80;1.00;;;;;;5061639;28;20684;-73
2022/12/16 02:30:40;;;;;;;40.22;20.30;;;0.90;1.00;;;;;;5079599;28;20492;-71
2022/12/16 02:33:36;;;;;;;37.88;20.88;;;0.90;1.00;;;;;;5079717;28;20173;-73
2022/12/16 02:36:29;;;;;;;32.35;18.67;;;0.90;1.00;;;;;;5078736;28;20188;-71
2022/12/16 02:39:04;;;;;;;37.85;19.35;;;0.90;1.00;;;;;;5079598;28;20172;-71
2022/12/16 02:41:41;;;;;;;41.00;20.43;;;1.00;1.00;;;;;;5061915;28;20177;-73
2022/12/16 02:44:11;;;;;;;33.95;19.08;;;1.10;1.00;;;;;;5061584;28;20489;-73
2022/12/16 02:46:43;;;;;;;37.00;19.93;;;1.10;1.00;;;;;;5078786;28;20197;-72
2022/12/16 02:49:29;;;;;;;36.70;18.70;;;1.20;1.00;;;;;;5079375;28;20960;-71
2022/12/16 02:51:57;;;;;;;37.47;20.70;;;1.20;1.00;;;;;;5079341;28;20607;-73
2022/12/16 02:54:23;;;;;;;33.67;20.70;;;1.20;1.00;;;;;;5061222;28;20518;-72
2022/12/16 02:57:00;;;;;;;39.90;21.30;;;1.20;1.00;;;;;;5079465;28;20912;-73
2022/12/16 02:59:40;;;;;;;33.50;21.60;;;1.20;1.00;;;;;;5079580;28;20403;-71
2022/12/16 03:02:31;;;;;;;32.13;18.67;;;1.20;1.00;;;;;;5079537;28;20400;-71
2022/12/16 03:05:01;;;;;;;34.10;20.97;;;1.20;1.00;;;;;;5060577;28;20456;-71
2022/12/16 03:07:30;;;;;;;30.63;19.50;;;1.30;1.00;;;;;;5079367;28;20447;-72
2022/12/16 03:09:58;;;;;;;31.47;19.90;;;1.30;1.00;;;;;;5079339;28;20224;-72
2022/12/16 03:12:24;;;;;;;32.38;20.88;;;1.30;1.00;;;;;;5079400;28;20385;-73
2022/12/16 03:14:53;;;;;;;36.83;21.03;;;1.40;1.00;;;;;;5078503;28;20193;-73
2022/12/16 03:17:22;;;;;;;34.70;19.57;;;1.40;1.00;;;;;;5079503;28;20396;-73
2022/12/16 03:20:06;;;;;;;35.63;20.40;;;1.40;1.00;;;;;;5079338;28;20473;-73
2022/12/16 03:22:35;;;;;;;30.37;18.60;;;1.40;1.00;;;;;;5077188;28;20424;-73
2022/12/16 03:25:01;;;;;;;30.60;19.13;;;1.40;1.00;;;;;;5056696;28;20525;-72
2022/12/16 03:27:54;;;;;;;30.10;18.70;;;1.30;1.00;;;;;;5076002;28;20449;-71
2022/12/16 03:30:27;;;;;;;35.93;21.70;;;1.30;1.00;;;;;;5048168;28;20404;-73
2022/12/16 03:33:13;;;;;;;31.50;17.57;;;1.20;1.00;;;;;;5075834;28;20862;-72
2022/12/16 03:36:00;;;;;;;29.38;20.75;;;1.10;1.00;;;;;;5074783;28;20428;-73
2022/12/16 03:38:27;;;;;;;30.10;18.57;;;1.20;1.00;;;;;;5075965;28;20174;-72
2022/12/16 03:40:55;;;;;;;30.83;18.67;;;1.10;1.00;;;;;;5075786;28;20908;-72
2022/12/16 03:43:23;;;;;;;28.17;18.80;;;1.10;1.00;;;;;;5057980;28;20462;-72
2022/12/16 03:45:53;;;;;;;31.02;18.90;;;0.90;1.00;;;;;;5074988;28;20432;-71
2022/12/16 03:48:22;;;;;;;28.10;19.00;;;0.80;1.00;;;;;;5058205;28;20170;-73
2022/12/16 03:50:48;;;;;;;30.75;19.30;;;0.70;1.00;;;;;;5075788;28;20424;-73
2022/12/16 03:53:14;;;;;;;33.70;19.00;;;0.70;1.00;;;;;;5075649;28;20635;-71
2022/12/16 03:55:40;;;;;;;32.47;20.10;;;0.60;1.00;;;;;;5074769;28;20215;-73
2022/12/16 03:58:06;;;;;;;35.20;21.73;;;0.60;1.00;;;;;;5075693;28;20459;-73
2022/12/16 04:00:32;;;;;;;34.45;19.70;;;0.50;1.00;;;;;;5075595;28;20757;-73
2022/12/16 04:02:58;;;;;;;33.38;19.42;;;0.50;1.00;;;;;;5057566;28;20228;-73
2022/12/16 04:05:23;;;;;;;29.73;18.87;;;0.50;1.00;;;;;;5073374;28;20213;-71
2022/12/16 04:07:49;;;;;;;28.50;19.37;;;0.60;1.00;;;;;;5075466;28;20198;-71
2022/12/16 04:10:15;;;;;;;29.77;18.80;;;0.60;1.00;;;;;;5075356;28;20248;-69
2022/12/16 04:29:18;;;;;;;28.80;19.05;;;0.70;1.00;;;;;;5074847;28;20171;-71
2022/12/16 04:31:44;;;;;;;27.17;17.73;;;0.60;1.00;;;;;;5074807;28;20162;-71
2022/12/16 04:34:25;;;;;;;30.27;17.37;;;0.60;1.00;;;;;;5056748;28;20646;-69
